Terminal Aerodrome Forecast
Issued by NWS

Current Version | Previous Version | Graphics & Text | Print | Product List | Glossary On
Versions: 1 2 3 4 5 6 7 8 9 10 11 12
000
FTUS41 KRNK 181137
TAFLWB
TAF
KLWB 181137Z 1812/1912 VRB04KT P6SM OVC200
     FM181600 VRB04KT P6SM SCT040 OVC150
     FM190200 07005KT P6SM BKN040 OVC100=

USA.gov is the U.S. government's official web portal to all federal, state and local government web resources and services.